createdAt,value
2023-02-07T00:00:51.800Z,96.33
2023-02-07T00:03:18.698Z,100.07
2023-02-07T00:05:45.574Z,93.07
2023-02-07T00:08:12.419Z,98.03
2023-02-07T00:10:39.243Z,96.83
2023-02-07T00:13:06.490Z,102.97
2023-02-07T00:15:33.471Z,95.77
2023-02-07T00:18:00.375Z,96.30
2023-02-07T00:20:27.245Z,93.30
2023-02-07T00:22:55.422Z,89.83
2023-02-07T00:25:22.605Z,95.10
2023-02-07T00:27:49.710Z,95.97
2023-02-07T00:30:17.029Z,91.00
2023-02-07T00:32:43.877Z,96.03
2023-02-07T00:35:10.682Z,86.27
2023-02-07T00:37:37.529Z,87.30
2023-02-07T00:40:04.976Z,82.63
2023-02-07T00:42:31.877Z,89.60
2023-02-07T00:44:58.750Z,81.27
2023-02-07T00:47:25.612Z,92.40
2023-02-07T00:49:52.394Z,90.87
2023-02-07T00:52:19.241Z,87.10
2023-02-07T00:54:46.281Z,95.03
2023-02-07T00:57:13.101Z,90.10
2023-02-07T00:59:39.899Z,81.27
2023-02-07T01:02:06.710Z,89.30
2023-02-07T01:04:33.578Z,84.73
2023-02-07T01:07:00.499Z,80.93
2023-02-07T01:09:27.354Z,86.87
2023-02-07T01:11:54.155Z,87.00
2023-02-07T01:14:21.031Z,84.27
2023-02-07T01:16:48.365Z,83.57
2023-02-07T01:19:16.113Z,91.37
2023-02-07T01:21:42.951Z,88.87
2023-02-07T01:24:10.381Z,81.37
2023-02-07T01:26:38.119Z,93.53
2023-02-07T01:29:05.859Z,84.10
2023-02-07T01:31:32.786Z,83.10
2023-02-07T01:34:00.553Z,84.47
2023-02-07T01:36:29.314Z,87.27
2023-02-07T01:38:56.790Z,81.90
2023-02-07T01:41:26.553Z,81.37
2023-02-07T01:44:07.824Z,84.70
2023-02-07T01:46:36.113Z,89.00
2023-02-07T01:49:07.804Z,90.67
2023-02-07T01:51:35.409Z,90.60
2023-02-07T01:54:06.508Z,82.63
2023-02-07T01:56:35.796Z,85.47
2023-02-07T01:59:05.790Z,80.47
2023-02-07T02:01:33.185Z,87.10
2023-02-07T02:04:01.249Z,84.37
2023-02-07T02:06:31.633Z,80.77
2023-02-07T02:09:02.054Z,81.53
2023-02-07T02:11:49.954Z,76.63
2023-02-07T02:14:42.685Z,76.07
2023-02-07T02:17:15.802Z,71.27
2023-02-07T02:19:51.967Z,77.63
2023-02-07T02:22:50.907Z,78.00
2023-02-07T02:25:35.825Z,74.43
2023-02-07T02:28:12.004Z,76.07
2023-02-07T02:31:02.323Z,78.70
2023-02-07T02:33:48.710Z,76.67
2023-02-07T02:36:45.906Z,76.30
2023-02-07T02:39:21.704Z,69.57
2023-02-07T02:42:15.013Z,79.07
2023-02-07T02:45:23.322Z,78.00
2023-02-07T02:47:51.891Z,69.60
2023-02-07T02:50:26.815Z,73.53
2023-02-07T02:52:53.950Z,78.87
2023-02-07T02:55:42.509Z,78.50
2023-02-07T02:58:14.614Z,70.40
2023-02-07T03:01:02.145Z,79.90
2023-02-07T03:03:34.769Z,73.17
2023-02-07T03:06:04.250Z,71.47
2023-02-07T03:08:45.069Z,78.20
2023-02-07T03:11:14.678Z,72.93
2023-02-07T03:13:49.275Z,76.13
2023-02-07T03:16:24.338Z,86.80
2023-02-07T03:19:22.441Z,76.90
2023-02-07T03:22:02.264Z,77.60
2023-02-07T03:24:33.237Z,73.80
2023-02-07T03:27:07.139Z,70.27
2023-02-07T03:29:37.306Z,72.80
2023-02-07T03:32:06.931Z,75.90
2023-02-07T03:34:43.900Z,69.70
2023-02-07T03:37:41.786Z,71.37
2023-02-07T03:40:10.534Z,64.67
2023-02-07T03:42:43.053Z,70.43
2023-02-07T03:45:14.420Z,69.37
2023-02-07T03:47:41.279Z,66.07
2023-02-07T03:50:08.512Z,66.67
2023-02-07T03:52:35.338Z,64.73
2023-02-07T03:55:02.193Z,68.90
2023-02-07T03:57:28.960Z,68.73
2023-02-07T03:59:55.794Z,69.70
2023-02-07T04:02:22.621Z,63.13
2023-02-07T04:04:49.453Z,65.23
2023-02-07T04:07:16.378Z,59.93
2023-02-07T04:09:43.205Z,64.10
2023-02-07T04:12:10.053Z,63.83
2023-02-07T04:14:36.864Z,64.47
2023-02-07T04:17:03.668Z,69.77
2023-02-07T04:19:30.434Z,62.20
2023-02-07T04:21:57.304Z,56.93
2023-02-07T04:24:24.097Z,65.43
2023-02-07T04:26:50.976Z,61.17
2023-02-07T04:29:17.851Z,57.17
2023-02-07T04:31:44.725Z,58.40
2023-02-07T04:34:13.034Z,58.10
2023-02-07T04:36:40.094Z,55.50
2023-02-07T04:39:06.967Z,57.37
2023-02-07T04:41:33.829Z,53.20
2023-02-07T04:44:00.606Z,53.47
2023-02-07T04:46:28.588Z,57.90
2023-02-07T04:48:55.616Z,48.43
2023-02-07T04:51:22.473Z,60.43
2023-02-07T04:53:49.258Z,54.47
2023-02-07T04:56:16.080Z,53.50
2023-02-07T04:58:42.918Z,53.63
2023-02-07T05:01:10.030Z,51.00
2023-02-07T05:03:36.889Z,48.60
2023-02-07T05:06:03.978Z,50.37
2023-02-07T05:08:30.825Z,48.97
2023-02-07T05:10:57.790Z,51.30
2023-02-07T05:13:25.260Z,49.87
2023-02-07T05:15:52.078Z,53.77
2023-02-07T05:18:19.032Z,51.10
2023-02-07T05:20:45.819Z,45.07
2023-02-07T05:23:12.683Z,49.33
2023-02-07T05:25:42.298Z,46.97
2023-02-07T05:28:09.614Z,46.70
2023-02-07T05:30:36.800Z,47.90
2023-02-07T05:33:03.735Z,45.33
2023-02-07T05:35:56.935Z,43.13
2023-02-07T05:38:23.717Z,46.10
2023-02-07T05:40:50.581Z,49.17
2023-02-07T05:43:17.490Z,47.93
2023-02-07T05:45:45.812Z,45.63
2023-02-07T05:48:15.539Z,45.40
2023-02-07T05:50:42.298Z,43.50
2023-02-07T05:53:10.422Z,44.57
2023-02-07T05:55:37.923Z,40.50
2023-02-07T05:58:05.222Z,41.43
2023-02-07T06:00:32.139Z,41.67
2023-02-07T06:02:59.065Z,37.50
2023-02-07T06:05:31.448Z,37.07
2023-02-07T06:07:58.406Z,39.93
2023-02-07T06:10:25.234Z,39.60
2023-02-07T06:12:52.057Z,39.53
2023-02-07T06:15:18.909Z,35.27
2023-02-07T06:17:45.690Z,37.07
2023-02-07T06:20:13.121Z,34.30
2023-02-07T06:22:39.916Z,37.83
2023-02-07T06:25:11.739Z,31.30
2023-02-07T06:27:42.032Z,33.90
2023-02-07T06:30:10.527Z,31.83
2023-02-07T06:32:37.413Z,32.47
2023-02-07T06:35:05.353Z,28.23
2023-02-07T06:37:32.159Z,30.17
2023-02-07T06:39:59.015Z,29.37
2023-02-07T06:42:25.865Z,29.13
2023-02-07T06:44:52.723Z,30.57
2023-02-07T06:47:20.805Z,27.67
2023-02-07T06:49:48.140Z,31.37
2023-02-07T06:52:15.101Z,28.43
2023-02-07T06:54:42.037Z,26.37
2023-02-07T06:57:08.989Z,27.50
2023-02-07T06:59:36.021Z,32.00
2023-02-07T07:02:03.770Z,27.97
2023-02-07T07:04:31.390Z,26.60
2023-02-07T07:06:58.697Z,25.97
2023-02-07T07:09:25.702Z,25.00
2023-02-07T07:11:52.476Z,26.67
2023-02-07T07:14:19.401Z,27.47
2023-02-07T07:16:46.328Z,28.40
2023-02-07T07:19:13.478Z,26.17
2023-02-07T07:21:40.520Z,28.50
2023-02-07T07:24:07.676Z,27.00
2023-02-07T07:26:48.350Z,23.73
2023-02-07T07:29:16.187Z,27.03
2023-02-07T07:31:43.084Z,26.20
2023-02-07T07:34:11.140Z,27.67
2023-02-07T07:36:37.939Z,27.80
2023-02-07T07:39:05.318Z,28.07
2023-02-07T07:41:32.175Z,32.63
2023-02-07T07:43:58.968Z,29.57
2023-02-07T07:46:25.993Z,27.60
2023-02-07T07:48:52.893Z,29.37
2023-02-07T07:51:19.736Z,31.20
2023-02-07T07:53:46.767Z,30.00
2023-02-07T07:56:13.536Z,31.97
2023-02-07T07:58:42.397Z,33.30
2023-02-07T08:01:09.285Z,28.03
2023-02-07T08:03:36.095Z,29.23
2023-02-07T08:06:02.957Z,29.30
2023-02-07T08:08:29.745Z,28.20
2023-02-07T08:11:02.141Z,31.23
2023-02-07T08:13:29.739Z,29.57
2023-02-07T08:15:59.651Z,29.37
2023-02-07T08:18:26.496Z,30.73
2023-02-07T08:20:53.336Z,29.47
2023-02-07T08:23:20.141Z,27.97
2023-02-07T08:25:47.025Z,30.33
2023-02-07T08:28:14.357Z,26.50
2023-02-07T08:30:41.418Z,31.80
2023-02-07T08:33:08.582Z,26.23
2023-02-07T08:35:36.473Z,28.60
2023-02-07T08:38:03.308Z,29.07
2023-02-07T08:40:30.197Z,27.67
2023-02-07T08:42:57.095Z,27.57
2023-02-07T08:45:23.911Z,30.13
2023-02-07T08:47:50.728Z,27.97
2023-02-07T08:50:18.862Z,30.43
2023-02-07T08:52:45.842Z,29.67
2023-02-07T08:55:12.710Z,29.30
2023-02-07T08:57:39.687Z,27.80
2023-02-07T09:00:07.741Z,28.07
2023-02-07T09:02:35.220Z,25.50
2023-02-07T09:05:02.540Z,28.93
2023-02-07T09:07:29.373Z,30.90
2023-02-07T09:09:56.234Z,29.70
2023-02-07T09:12:23.051Z,26.57
2023-02-07T09:14:49.969Z,26.50
2023-02-07T09:17:16.761Z,26.67
2023-02-07T09:19:43.589Z,27.57
2023-02-07T09:22:10.413Z,29.50
2023-02-07T09:24:37.362Z,28.63
2023-02-07T09:27:04.183Z,28.03
2023-02-07T09:29:30.957Z,27.27
2023-02-07T09:31:57.829Z,31.10
2023-02-07T09:34:25.338Z,25.47
2023-02-07T09:36:52.138Z,25.20
2023-02-07T09:39:19.900Z,24.53
2023-02-07T09:41:55.946Z,30.20
2023-02-07T09:44:51.628Z,26.43
2023-02-07T09:47:24.813Z,24.40
2023-02-07T09:49:59.870Z,26.33
2023-02-07T09:52:38.698Z,24.17
2023-02-07T09:55:06.873Z,24.97
2023-02-07T09:57:46.336Z,27.20
2023-02-07T10:00:26.959Z,25.67
2023-02-07T10:03:13.985Z,22.73
2023-02-07T10:05:51.938Z,25.07
2023-02-07T10:08:20.008Z,23.60
2023-02-07T10:11:17.849Z,28.03
2023-02-07T10:14:09.972Z,23.27
2023-02-07T10:17:06.051Z,26.63
2023-02-07T10:19:42.521Z,26.67
2023-02-07T10:22:35.786Z,25.37
2023-02-07T10:25:33.895Z,25.30
2023-02-07T10:28:23.214Z,19.93
2023-02-07T10:30:54.507Z,25.47
2023-02-07T10:33:29.000Z,22.70
2023-02-07T10:35:56.662Z,20.97
2023-02-07T10:38:42.252Z,22.27
2023-02-07T10:41:25.924Z,21.40
2023-02-07T10:43:52.864Z,21.17
2023-02-07T10:46:22.508Z,21.43
2023-02-07T10:48:49.984Z,21.37
2023-02-07T10:51:27.623Z,21.40
2023-02-07T10:54:03.111Z,22.23
2023-02-07T10:56:33.382Z,23.00
2023-02-07T10:59:00.691Z,20.67
2023-02-07T11:01:30.950Z,22.13
2023-02-07T11:03:58.992Z,20.67
2023-02-07T11:06:25.736Z,21.37
2023-02-07T11:09:11.602Z,23.43
2023-02-07T11:11:40.750Z,22.07
2023-02-07T11:14:15.481Z,20.47
2023-02-07T11:16:44.834Z,21.60
2023-02-07T11:19:18.774Z,21.37
2023-02-07T11:21:48.401Z,21.93
2023-02-07T11:24:35.773Z,20.80
2023-02-07T11:27:05.789Z,21.47
2023-02-07T11:29:44.226Z,23.53
2023-02-07T11:32:15.128Z,23.60
2023-02-07T11:34:47.932Z,25.20
2023-02-07T11:37:17.757Z,23.60
2023-02-07T11:39:45.236Z,24.07
2023-02-07T11:42:15.341Z,20.80
2023-02-07T11:44:43.681Z,21.80
2023-02-07T11:47:16.744Z,22.97
2023-02-07T11:49:48.229Z,25.10
2023-02-07T11:52:15.458Z,24.50
2023-02-07T11:54:48.288Z,21.20
2023-02-07T11:57:17.691Z,21.47
2023-02-07T11:59:47.524Z,22.10
2023-02-07T12:02:22.985Z,23.80
2023-02-07T12:04:51.491Z,21.33
2023-02-07T12:07:38.573Z,21.77
2023-02-07T12:10:32.203Z,22.80
2023-02-07T12:13:19.841Z,23.00
2023-02-07T12:15:53.261Z,21.97
2023-02-07T12:18:34.108Z,18.63
2023-02-07T12:21:16.956Z,18.53
2023-02-07T12:23:57.287Z,21.17
2023-02-07T12:26:38.374Z,22.57
2023-02-07T12:29:33.443Z,19.50
2023-02-07T12:32:24.497Z,21.77
2023-02-07T12:35:13.541Z,21.87
2023-02-07T12:38:19.677Z,18.07
2023-02-07T12:41:07.290Z,20.13
2023-02-07T12:43:38.696Z,23.90
2023-02-07T12:46:42.205Z,20.27
2023-02-07T12:49:37.546Z,18.53
2023-02-07T12:52:34.306Z,21.23
2023-02-07T12:55:36.991Z,22.07
2023-02-07T12:58:35.617Z,20.00
2023-02-07T13:01:33.027Z,21.80
2023-02-07T13:04:11.201Z,21.80
2023-02-07T13:07:04.873Z,22.83
2023-02-07T13:09:42.755Z,20.47
2023-02-07T13:12:19.630Z,21.13
2023-02-07T13:15:18.846Z,21.00
2023-02-07T13:18:03.971Z,22.45
2023-02-07T13:20:48.687Z,19.53
2023-02-07T13:23:38.711Z,22.57
2023-02-07T13:26:52.520Z,18.90
2023-02-07T13:29:39.402Z,17.73
2023-02-07T13:32:17.493Z,22.30
2023-02-07T13:35:04.591Z,22.90
2023-02-07T13:37:58.240Z,19.90
2023-02-07T13:40:52.074Z,18.00
2023-02-07T13:44:09.026Z,20.93
2023-02-07T13:46:43.377Z,19.97
2023-02-07T13:49:31.682Z,20.83
2023-02-07T13:52:11.981Z,18.63
2023-02-07T13:54:52.917Z,21.27
2023-02-07T13:57:58.704Z,21.07
2023-02-07T14:00:31.563Z,20.03
2023-02-07T14:03:03.528Z,20.20
2023-02-07T14:05:39.797Z,19.07
2023-02-07T14:08:25.040Z,19.10
2023-02-07T14:10:55.486Z,22.27
2023-02-07T14:13:31.775Z,22.47
2023-02-07T14:16:02.991Z,20.50
2023-02-07T14:18:52.656Z,22.33
2023-02-07T14:21:20.131Z,22.33
2023-02-07T14:24:11.463Z,21.40
2023-02-07T14:26:38.261Z,20.40
2023-02-07T14:29:20.487Z,24.30
2023-02-07T14:32:08.721Z,22.10
2023-02-07T14:34:58.893Z,18.77
2023-02-07T14:37:55.608Z,21.23
2023-02-07T14:40:32.935Z,23.00
2023-02-07T14:43:04.104Z,19.77
2023-02-07T14:45:33.974Z,23.07
2023-02-07T14:48:01.601Z,20.40
2023-02-07T14:50:33.802Z,24.57
2023-02-07T14:53:04.543Z,19.27
2023-02-07T14:55:50.577Z,24.60
2023-02-07T14:58:26.299Z,23.53
2023-02-07T15:00:58.865Z,21.20
2023-02-07T15:03:29.737Z,22.07
2023-02-07T15:06:04.641Z,20.43
2023-02-07T15:08:34.871Z,28.33
2023-02-07T15:11:08.543Z,22.83
2023-02-07T15:13:39.974Z,19.50
2023-02-07T15:16:08.397Z,23.90
2023-02-07T15:18:42.470Z,23.57
2023-02-07T15:21:29.868Z,26.10
2023-02-07T15:24:18.866Z,23.20
2023-02-07T15:26:50.943Z,22.77
2023-02-07T15:29:25.471Z,22.93
2023-02-07T15:31:54.422Z,24.07
2023-02-07T15:34:31.735Z,22.73
2023-02-07T15:37:15.374Z,22.43
2023-02-07T15:39:42.584Z,24.53
2023-02-07T15:42:16.609Z,22.03
2023-02-07T15:44:54.126Z,23.47
2023-02-07T15:47:30.119Z,22.97
2023-02-07T15:50:07.513Z,24.33
2023-02-07T15:52:37.676Z,23.83
2023-02-07T15:55:17.708Z,22.77
2023-02-07T15:57:46.385Z,22.83
2023-02-07T16:00:18.107Z,21.33
2023-02-07T16:02:53.899Z,27.53
2023-02-07T16:05:32.742Z,26.57
2023-02-07T16:08:01.889Z,24.80
2023-02-07T16:10:34.496Z,22.37
2023-02-07T16:13:14.815Z,22.33
2023-02-07T16:16:00.058Z,28.07
2023-02-07T16:18:41.873Z,23.37
2023-02-07T16:21:28.376Z,21.40
2023-02-07T16:24:12.700Z,29.07
2023-02-07T16:26:39.901Z,33.93
2023-02-07T16:29:08.061Z,23.27
2023-02-07T16:31:35.624Z,25.47
2023-02-07T16:34:02.478Z,24.03
2023-02-07T16:36:29.451Z,26.33
2023-02-07T16:38:56.222Z,25.97
2023-02-07T16:41:31.936Z,26.13
2023-02-07T16:44:00.987Z,29.43
2023-02-07T16:46:28.263Z,31.77
2023-02-07T16:48:55.352Z,27.87
2023-02-07T16:51:22.193Z,27.90
2023-02-07T16:53:49.063Z,28.57
2023-02-07T16:56:24.670Z,27.43
2023-02-07T16:58:51.810Z,29.50
2023-02-07T17:01:20.220Z,29.93
2023-02-07T17:03:47.454Z,29.40
2023-02-07T17:06:18.569Z,26.97
2023-02-07T17:08:45.956Z,28.47
2023-02-07T17:11:24.948Z,27.27
2023-02-07T17:13:56.484Z,25.00
2023-02-07T17:16:25.774Z,29.73
2023-02-07T17:18:53.589Z,30.17
2023-02-07T17:21:22.425Z,32.50
2023-02-07T17:23:49.537Z,32.17
2023-02-07T17:26:27.502Z,32.70
2023-02-07T17:28:55.241Z,28.93
2023-02-07T17:31:22.581Z,29.17
2023-02-07T17:33:51.710Z,28.70
2023-02-07T17:36:18.767Z,29.27
2023-02-07T17:38:45.795Z,25.23
2023-02-07T17:41:13.804Z,30.47
2023-02-07T17:43:41.450Z,29.13
2023-02-07T17:46:20.328Z,31.97
2023-02-07T17:48:49.194Z,26.23
2023-02-07T17:51:16.452Z,26.80
2023-02-07T17:53:43.352Z,26.13
2023-02-07T17:56:22.579Z,25.80
2023-02-07T17:58:50.205Z,24.27
2023-02-07T18:01:19.323Z,26.53
2023-02-07T18:03:47.992Z,24.70
2023-02-07T18:06:16.523Z,25.17
2023-02-07T18:08:43.967Z,27.63
2023-02-07T18:11:14.271Z,28.70
2023-02-07T18:13:47.426Z,33.27
2023-02-07T18:16:17.450Z,27.83
2023-02-07T18:18:44.843Z,26.57
2023-02-07T18:21:13.644Z,27.60
2023-02-07T18:23:43.009Z,25.00
2023-02-07T18:26:15.236Z,22.17
2023-02-07T18:28:43.780Z,27.50
2023-02-07T18:31:19.267Z,29.70
2023-02-07T18:33:48.495Z,29.90
2023-02-07T18:36:16.005Z,25.60
2023-02-07T18:38:43.270Z,24.87
2023-02-07T18:41:16.212Z,27.30
2023-02-07T18:43:43.377Z,24.80
2023-02-07T18:46:16.624Z,27.07
2023-02-07T18:48:51.070Z,30.20
2023-02-07T18:51:19.341Z,28.03
2023-02-07T18:53:46.364Z,26.90
2023-02-07T18:56:19.945Z,28.37
2023-02-07T18:58:47.905Z,29.33
2023-02-07T19:01:19.208Z,26.00
2023-02-07T19:03:48.459Z,25.60
2023-02-07T19:06:15.342Z,25.17
2023-02-07T19:08:42.206Z,26.30
2023-02-07T19:11:12.138Z,26.73
2023-02-07T19:13:39.272Z,24.00
2023-02-07T19:16:10.508Z,24.23
2023-02-07T19:18:37.706Z,29.50
2023-02-07T19:21:10.308Z,27.37
2023-02-07T19:23:37.676Z,29.00
2023-02-07T19:26:04.772Z,28.57
2023-02-07T19:28:33.268Z,25.30
2023-02-07T19:31:18.178Z,26.17
2023-02-07T19:33:46.677Z,24.77
2023-02-07T19:36:14.062Z,31.53
2023-02-07T19:38:41.066Z,25.93
2023-02-07T19:41:11.676Z,24.20
2023-02-07T19:43:38.564Z,25.83
2023-02-07T19:46:05.545Z,27.77
2023-02-07T19:48:32.382Z,23.77
2023-02-07T19:51:09.598Z,23.43
2023-02-07T19:53:36.657Z,25.57
2023-02-07T19:56:06.288Z,22.50
2023-02-07T19:58:34.702Z,26.53
2023-02-07T20:01:02.133Z,28.67
2023-02-07T20:03:29.182Z,26.77
2023-02-07T20:06:00.678Z,28.90
2023-02-07T20:08:28.902Z,26.37
2023-02-07T20:10:58.319Z,29.37
2023-02-07T20:13:25.105Z,26.67
2023-02-07T20:15:51.920Z,31.70
2023-02-07T20:18:18.763Z,29.23
2023-02-07T20:20:48.111Z,27.87
2023-02-07T20:23:16.189Z,27.97
2023-02-07T20:25:43.140Z,27.83
2023-02-07T20:28:10.042Z,28.87
2023-02-07T20:30:44.989Z,25.53
2023-02-07T20:33:11.818Z,26.30
2023-02-07T20:35:39.136Z,29.77
2023-02-07T20:38:06.048Z,29.30
2023-02-07T20:40:32.999Z,27.73
2023-02-07T20:42:59.790Z,27.43
2023-02-07T20:45:26.589Z,27.87
2023-02-07T20:47:53.450Z,28.10
2023-02-07T20:50:20.304Z,30.57
2023-02-07T20:52:47.084Z,30.90
2023-02-07T20:55:13.842Z,28.37
2023-02-07T20:57:40.666Z,26.87
2023-02-07T21:00:08.943Z,28.47
2023-02-07T21:02:36.708Z,27.20
2023-02-07T21:05:03.762Z,28.47
2023-02-07T21:07:30.652Z,25.93
2023-02-07T21:09:57.485Z,26.40
2023-02-07T21:12:24.444Z,25.67
2023-02-07T21:14:51.318Z,26.00
2023-02-07T21:17:18.245Z,27.97
2023-02-07T21:19:45.087Z,26.27
2023-02-07T21:22:12.531Z,26.37
2023-02-07T21:24:39.410Z,25.67
2023-02-07T21:27:06.497Z,28.30
2023-02-07T21:29:36.422Z,24.77
2023-02-07T21:32:03.437Z,25.37
2023-02-07T21:34:30.636Z,24.93
2023-02-07T21:36:57.944Z,25.50
2023-02-07T21:39:24.977Z,28.50
2023-02-07T21:41:51.994Z,26.03
2023-02-07T21:44:21.184Z,26.33
2023-02-07T21:46:52.273Z,30.20
2023-02-07T21:49:21.026Z,30.00
2023-02-07T21:51:49.181Z,26.60
2023-02-07T21:54:16.774Z,29.23
2023-02-07T21:56:45.256Z,28.97
2023-02-07T21:59:14.803Z,28.27
2023-02-07T22:01:42.202Z,33.27
2023-02-07T22:04:10.582Z,29.27
2023-02-07T22:06:41.949Z,25.20
2023-02-07T22:09:11.487Z,27.23
2023-02-07T22:11:38.830Z,24.83
2023-02-07T22:14:05.764Z,27.70
2023-02-07T22:16:37.037Z,28.20
2023-02-07T22:19:05.859Z,29.30
2023-02-07T22:21:35.670Z,29.33
2023-02-07T22:24:04.314Z,26.50
2023-02-07T22:26:31.952Z,25.60
2023-02-07T22:29:01.522Z,23.73
2023-02-07T22:31:30.524Z,27.43
2023-02-07T22:34:02.930Z,23.53
2023-02-07T22:36:32.085Z,25.90
2023-02-07T22:39:00.832Z,25.37
2023-02-07T22:41:28.545Z,26.10
2023-02-07T22:43:55.688Z,29.47
2023-02-07T22:46:24.488Z,26.93
2023-02-07T22:48:52.463Z,31.73
2023-02-07T22:51:25.808Z,26.03
2023-02-07T22:53:58.338Z,27.80
2023-02-07T22:56:26.087Z,26.33
2023-02-07T22:58:54.116Z,25.87
2023-02-07T23:01:30.653Z,25.10
2023-02-07T23:03:58.428Z,26.40
2023-02-07T23:06:26.032Z,25.43
2023-02-07T23:08:53.312Z,25.93
2023-02-07T23:11:21.916Z,25.37
2023-02-07T23:13:48.961Z,26.77
2023-02-07T23:16:22.572Z,29.03
2023-02-07T23:18:50.913Z,26.20
2023-02-07T23:21:20.084Z,28.37
2023-02-07T23:23:46.928Z,25.00
2023-02-07T23:26:16.005Z,25.30
2023-02-07T23:28:43.694Z,24.37
2023-02-07T23:31:13.307Z,25.20
2023-02-07T23:33:40.692Z,22.93
2023-02-07T23:36:08.691Z,26.67
2023-02-07T23:38:36.218Z,24.70
2023-02-07T23:41:03.827Z,26.40
2023-02-07T23:43:30.688Z,33.40
2023-02-07T23:45:57.532Z,27.67
2023-02-07T23:48:25.705Z,26.30
2023-02-07T23:50:57.273Z,27.20
2023-02-07T23:53:24.584Z,26.00
2023-02-07T23:55:53.843Z,25.63
2023-02-07T23:58:21.000Z,26.37
